Thursday, July 24, 2014, 12:14 AM EDT

KOFP, Hanover County Municipal

Location: Ashland, VA, United States Lat: 37.7
Local Time: 12:14 AM EDT ( 4:14 GMT) Lon: -77.433
Time Zone: US/Eastern Elev: 203 ft

Show me the last for .
Show Decoded

2014-07-23 23:54 METAR KOFP 240354Z AUTO 02003KT 10SM FEW080 27/19 A2989 RMK AO2 LTG DSNT N
                 SLP118 T02670194 =
2014-07-23 22:54 METAR KOFP 240254Z AUTO 00000KT 10SM BKN055 BKN075 BKN090 29/21 A2988 RMK AO2
                 LTG DSNT NE AND NW SLP115 T02890211 53003 =
2014-07-23 21:54 METAR KOFP 240154Z AUTO 21004KT 10SM CLR 30/21 A2987 RMK AO2 LTG DSNT N AND NW
                 SLP113 T03000206 =
2014-07-23 20:54 METAR KOFP 240054Z AUTO 21006KT 10SM CLR 31/21 A2987 RMK AO2 SLP114 T03110206 =
2014-07-23 19:54 METAR KOFP 232354Z AUTO 20008G17KT 10SM FEW110 32/21 A2987 RMK AO2 SLP112
                 T03220211 10361 20322 55001 =
2014-07-23 18:54 METAR KOFP 232254Z AUTO 24011G16KT 10SM FEW060 34/20 A2986 RMK AO2 SLP107
                 T03390200 =
2014-07-23 17:54 METAR KOFP 232154Z AUTO 20011KT 10SM SCT060 SCT075 34/20 A2984 RMK AO2 SLP103
                 T03440200 =
2014-07-23 16:54 METAR KOFP 232054Z AUTO 21007KT 10SM FEW065 34/19 A2987 RMK AO2 SLP113 T03440194
                 56025 =
2014-07-23 14:54 METAR KOFP 231854Z AUTO 18008KT 10SM SCT060 SCT075 34/19 A2992 RMK AO2 SLP129
                 T03390194 =
2014-07-23 13:54 METAR KOFP 231754Z AUTO 23004KT 10SM FEW049 33/19 A2995 RMK AO2 SLP137 T03330194
                 10344 20244 56023 =
2014-07-23 12:54 METAR KOFP 231654Z AUTO 21007KT 10SM FEW044 33/20 A2997 RMK AO2 SLP146 T03330200
                 =
2014-07-23 11:54 METAR KOFP 231554Z AUTO 29007KT 10SM CLR 33/20 A2999 RMK AO2 SLP152 T03280200 =
2014-07-23 10:54 METAR KOFP 231454Z AUTO 24009KT 10SM FEW080 32/21 A3001 RMK AO2 SLP161 T03170206
                 58012 =
2014-07-23 09:54 METAR KOFP 231354Z AUTO 26008KT 10SM CLR 30/21 A3003 RMK AO2 SLP168 T03000211 =
2014-07-23 08:54 METAR KOFP 231254Z AUTO 22007KT 10SM CLR 27/21 A3005 RMK AO2 SLP172 T02720211 =
2014-07-23 07:54 METAR KOFP 231154Z AUTO 20005KT 9SM CLR 24/22 A3005 RMK AO2 SLP173 T02440217
                 10244 20194 55001 =
2014-07-23 06:54 METAR KOFP 231054Z AUTO 00000KT 8SM CLR 21/19 A3004 RMK AO2 SLP171 T02060194 =
2014-07-23 05:54 METAR KOFP 230954Z AUTO 00000KT 7SM CLR 20/19 A3004 RMK AO2 SLP168 T02000194 =
2014-07-23 04:54 METAR KOFP 230854Z AUTO 00000KT 7SM CLR 20/19 A3005 RMK AO2 SLP174 T02000194
                 56009 =
2014-07-23 02:54 METAR KOFP 230654Z AUTO 00000KT 9SM CLR 21/19 A3007 RMK AO2 SLP179 T02110194 =
2014-07-23 01:54 METAR KOFP 230554Z AUTO 00000KT 10SM CLR 21/19 A3008 RMK AO2 SLP184 T02110194
                 10278 20211 58010 =
2014-07-23 00:54 METAR KOFP 230454Z AUTO 00000KT 10SM CLR 22/20 A3010 RMK AO2 SLP191 T02220200
                 403110194 =

Support USWX by starting your Amazon purchase here.